sensor_id;sensor_type;location;lat;lon;timestamp;P1;durP1;ratioP1;P2;durP2;ratioP2
10299;SDS011;5195;48.562;9.192;2023-07-20T00:00:17;2.50;;;2.30;;
10299;SDS011;5195;48.562;9.192;2023-07-20T00:02:42;3.70;;;2.20;;
10299;SDS011;5195;48.562;9.192;2023-07-20T00:05:08;3.92;;;2.45;;
10299;SDS011;5195;48.562;9.192;2023-07-20T00:07:33;3.25;;;2.25;;
10299;SDS011;5195;48.562;9.192;2023-07-20T00:09:59;2.65;;;2.12;;
10299;SDS011;5195;48.562;9.192;2023-07-20T00:12:25;3.20;;;2.40;;
10299;SDS011;5195;48.562;9.192;2023-07-20T00:14:50;2.53;;;2.30;;
10299;SDS011;5195;48.562;9.192;2023-07-20T00:17:17;3.50;;;2.50;;
10299;SDS011;5195;48.562;9.192;2023-07-20T00:19:42;3.15;;;2.45;;
10299;SDS011;5195;48.562;9.192;2023-07-20T00:22:08;3.75;;;2.47;;
10299;SDS011;5195;48.562;9.192;2023-07-20T00:24:34;2.50;;;2.30;;
10299;SDS011;5195;48.562;9.192;2023-07-20T00:27:00;2.20;;;2.10;;
10299;SDS011;5195;48.562;9.192;2023-07-20T00:29:26;2.60;;;2.40;;
10299;SDS011;5195;48.562;9.192;2023-07-20T00:31:52;4.40;;;2.07;;
10299;SDS011;5195;48.562;9.192;2023-07-20T00:34:17;3.37;;;2.58;;
10299;SDS011;5195;48.562;9.192;2023-07-20T00:36:43;3.43;;;2.40;;
10299;SDS011;5195;48.562;9.192;2023-07-20T00:39:08;2.60;;;2.40;;
10299;SDS011;5195;48.562;9.192;2023-07-20T00:41:35;3.00;;;2.33;;
10299;SDS011;5195;48.562;9.192;2023-07-20T00:44:00;2.60;;;2.40;;
10299;SDS011;5195;48.562;9.192;2023-07-20T00:46:26;2.45;;;2.30;;
10299;SDS011;5195;48.562;9.192;2023-07-20T00:48:51;3.67;;;2.20;;
10299;SDS011;5195;48.562;9.192;2023-07-20T00:51:17;3.75;;;2.58;;
10299;SDS011;5195;48.562;9.192;2023-07-20T00:53:43;2.80;;;2.50;;
10299;SDS011;5195;48.562;9.192;2023-07-20T00:56:08;2.80;;;2.60;;
10299;SDS011;5195;48.562;9.192;2023-07-20T00:58:35;2.97;;;2.72;;
10299;SDS011;5195;48.562;9.192;2023-07-20T01:01:00;2.50;;;2.27;;
10299;SDS011;5195;48.562;9.192;2023-07-20T01:03:26;2.47;;;2.37;;
10299;SDS011;5195;48.562;9.192;2023-07-20T01:06:31;2.63;;;2.43;;
10299;SDS011;5195;48.562;9.192;2023-07-20T01:09:02;3.00;;;2.70;;
10299;SDS011;5195;48.562;9.192;2023-07-20T01:13:59;3.90;;;2.53;;
10299;SDS011;5195;48.562;9.192;2023-07-20T01:16:24;3.17;;;2.60;;
10299;SDS011;5195;48.562;9.192;2023-07-20T01:18:50;6.43;;;3.10;;
10299;SDS011;5195;48.562;9.192;2023-07-20T01:21:18;2.73;;;2.50;;
10299;SDS011;5195;48.562;9.192;2023-07-20T01:31:37;3.25;;;3.00;;
10299;SDS011;5195;48.562;9.192;2023-07-20T01:34:03;11.60;;;2.90;;
10299;SDS011;5195;48.562;9.192;2023-07-20T01:36:30;3.53;;;2.47;;
10299;SDS011;5195;48.562;9.192;2023-07-20T01:38:54;3.33;;;2.85;;
10299;SDS011;5195;48.562;9.192;2023-07-20T01:41:20;2.90;;;2.70;;
10299;SDS011;5195;48.562;9.192;2023-07-20T01:43:46;2.67;;;2.47;;
10299;SDS011;5195;48.562;9.192;2023-07-20T01:46:11;2.65;;;2.45;;
10299;SDS011;5195;48.562;9.192;2023-07-20T01:48:37;3.57;;;2.90;;
10299;SDS011;5195;48.562;9.192;2023-07-20T01:51:03;3.65;;;2.90;;
10299;SDS011;5195;48.562;9.192;2023-07-20T01:53:29;3.50;;;2.90;;
10299;SDS011;5195;48.562;9.192;2023-07-20T01:55:54;3.30;;;3.00;;
10299;SDS011;5195;48.562;9.192;2023-07-20T01:58:20;3.30;;;2.70;;
10299;SDS011;5195;48.562;9.192;2023-07-20T02:00:45;2.63;;;2.40;;
10299;SDS011;5195;48.562;9.192;2023-07-20T02:03:11;2.87;;;2.67;;
10299;SDS011;5195;48.562;9.192;2023-07-20T02:05:36;3.40;;;2.50;;
10299;SDS011;5195;48.562;9.192;2023-07-20T02:08:02;3.10;;;2.90;;
10299;SDS011;5195;48.562;9.192;2023-07-20T02:10:29;4.18;;;3.00;;
10299;SDS011;5195;48.562;9.192;2023-07-20T02:12:55;3.30;;;3.00;;
10299;SDS011;5195;48.562;9.192;2023-07-20T02:15:21;5.00;;;2.90;;
10299;SDS011;5195;48.562;9.192;2023-07-20T02:17:47;3.77;;;2.90;;
10299;SDS011;5195;48.562;9.192;2023-07-20T02:20:12;3.03;;;2.63;;
10299;SDS011;5195;48.562;9.192;2023-07-20T02:22:38;3.53;;;2.83;;
10299;SDS011;5195;48.562;9.192;2023-07-20T02:25:04;3.72;;;2.80;;
10299;SDS011;5195;48.562;9.192;2023-07-20T02:27:29;4.10;;;3.00;;
10299;SDS011;5195;48.562;9.192;2023-07-20T02:29:55;2.77;;;2.60;;
10299;SDS011;5195;48.562;9.192;2023-07-20T02:32:22;3.70;;;2.70;;
10299;SDS011;5195;48.562;9.192;2023-07-20T02:34:47;3.65;;;3.00;;
10299;SDS011;5195;48.562;9.192;2023-07-20T02:37:13;3.37;;;3.00;;
10299;SDS011;5195;48.562;9.192;2023-07-20T02:39:39;2.90;;;2.45;;
10299;SDS011;5195;48.562;9.192;2023-07-20T02:42:04;4.10;;;2.97;;
10299;SDS011;5195;48.562;9.192;2023-07-20T02:44:30;4.23;;;2.73;;
10299;SDS011;5195;48.562;9.192;2023-07-20T02:46:55;3.33;;;3.03;;
10299;SDS011;5195;48.562;9.192;2023-07-20T02:49:21;6.40;;;2.65;;
10299;SDS011;5195;48.562;9.192;2023-07-20T02:51:46;3.23;;;2.70;;
10299;SDS011;5195;48.562;9.192;2023-07-20T02:54:13;3.27;;;2.97;;
10299;SDS011;5195;48.562;9.192;2023-07-20T02:56:38;3.47;;;2.77;;
10299;SDS011;5195;48.562;9.192;2023-07-20T02:59:04;3.03;;;2.60;;
10299;SDS011;5195;48.562;9.192;2023-07-20T03:01:29;3.10;;;2.90;;
10299;SDS011;5195;48.562;9.192;2023-07-20T03:03:55;3.90;;;2.93;;
10299;SDS011;5195;48.562;9.192;2023-07-20T03:06:20;3.20;;;2.90;;
10299;SDS011;5195;48.562;9.192;2023-07-20T03:08:46;2.35;;;2.25;;
10299;SDS011;5195;48.562;9.192;2023-07-20T03:11:16;2.63;;;2.47;;
10299;SDS011;5195;48.562;9.192;2023-07-20T03:13:42;3.00;;;2.70;;
10299;SDS011;5195;48.562;9.192;2023-07-20T03:16:09;3.20;;;2.87;;
10299;SDS011;5195;48.562;9.192;2023-07-20T03:18:34;2.90;;;2.70;;
10299;SDS011;5195;48.562;9.192;2023-07-20T03:21:00;2.70;;;2.57;;
10299;SDS011;5195;48.562;9.192;2023-07-20T03:23:26;3.20;;;2.90;;
10299;SDS011;5195;48.562;9.192;2023-07-20T03:25:51;2.50;;;2.40;;
10299;SDS011;5195;48.562;9.192;2023-07-20T03:28:17;2.55;;;2.35;;
10299;SDS011;5195;48.562;9.192;2023-07-20T03:30:43;2.42;;;2.33;;
10299;SDS011;5195;48.562;9.192;2023-07-20T03:33:08;5.18;;;2.97;;
10299;SDS011;5195;48.562;9.192;2023-07-20T03:35:34;2.70;;;2.50;;
10299;SDS011;5195;48.562;9.192;2023-07-20T03:37:59;2.97;;;2.78;;
10299;SDS011;5195;48.562;9.192;2023-07-20T03:40:25;2.80;;;2.60;;
10299;SDS011;5195;48.562;9.192;2023-07-20T03:42:50;3.12;;;2.92;;
10299;SDS011;5195;48.562;9.192;2023-07-20T03:45:16;3.28;;;3.08;;
10299;SDS011;5195;48.562;9.192;2023-07-20T03:47:42;2.80;;;2.60;;
10299;SDS011;5195;48.562;9.192;2023-07-20T03:50:07;3.00;;;2.80;;
10299;SDS011;5195;48.562;9.192;2023-07-20T03:52:33;4.33;;;2.83;;
10299;SDS011;5195;48.562;9.192;2023-07-20T03:54:59;3.20;;;2.90;;
10299;SDS011;5195;48.562;9.192;2023-07-20T03:57:25;3.10;;;2.90;;
10299;SDS011;5195;48.562;9.192;2023-07-20T03:59:50;2.63;;;2.50;;
10299;SDS011;5195;48.562;9.192;2023-07-20T04:02:16;3.57;;;2.93;;
10299;SDS011;5195;48.562;9.192;2023-07-20T04:04:42;2.57;;;2.37;;
10299;SDS011;5195;48.562;9.192;2023-07-20T04:07:09;3.22;;;2.90;;
10299;SDS011;5195;48.562;9.192;2023-07-20T04:09:34;2.83;;;2.63;;
10299;SDS011;5195;48.562;9.192;2023-07-20T04:12:01;3.00;;;2.80;;
10299;SDS011;5195;48.562;9.192;2023-07-20T04:14:26;2.70;;;2.53;;
10299;SDS011;5195;48.562;9.192;2023-07-20T04:16:52;2.83;;;2.63;;
10299;SDS011;5195;48.562;9.192;2023-07-20T04:19:17;3.05;;;2.75;;
10299;SDS011;5195;48.562;9.192;2023-07-20T04:21:44;3.92;;;2.67;;
10299;SDS011;5195;48.562;9.192;2023-07-20T04:24:10;2.87;;;2.50;;
10299;SDS011;5195;48.562;9.192;2023-07-20T04:26:35;3.10;;;2.83;;
10299;SDS011;5195;48.562;9.192;2023-07-20T04:29:01;3.33;;;3.03;;
10299;SDS011;5195;48.562;9.192;2023-07-20T04:31:26;3.30;;;2.40;;
10299;SDS011;5195;48.562;9.192;2023-07-20T04:33:52;2.60;;;2.40;;
10299;SDS011;5195;48.562;9.192;2023-07-20T04:36:18;2.80;;;2.60;;
10299;SDS011;5195;48.562;9.192;2023-07-20T04:38:43;2.40;;;2.30;;
10299;SDS011;5195;48.562;9.192;2023-07-20T04:41:09;3.10;;;2.80;;
10299;SDS011;5195;48.562;9.192;2023-07-20T04:43:34;3.27;;;2.97;;
10299;SDS011;5195;48.562;9.192;2023-07-20T04:46:00;3.17;;;2.40;;
10299;SDS011;5195;48.562;9.192;2023-07-20T04:48:26;2.80;;;2.57;;
10299;SDS011;5195;48.562;9.192;2023-07-20T04:50:51;3.17;;;2.87;;
10299;SDS011;5195;48.562;9.192;2023-07-20T04:53:18;2.80;;;2.60;;
10299;SDS011;5195;48.562;9.192;2023-07-20T04:55:48;2.77;;;2.50;;
10299;SDS011;5195;48.562;9.192;2023-07-20T04:58:18;2.50;;;2.40;;
10299;SDS011;5195;48.562;9.192;2023-07-20T05:00:47;3.83;;;2.60;;
10299;SDS011;5195;48.562;9.192;2023-07-20T05:03:12;3.77;;;2.60;;
10299;SDS011;5195;48.562;9.192;2023-07-20T05:05:37;2.80;;;2.60;;
10299;SDS011;5195;48.562;9.192;2023-07-20T05:08:03;2.90;;;2.70;;
10299;SDS011;5195;48.562;9.192;2023-07-20T05:10:29;3.20;;;2.40;;
10299;SDS011;5195;48.562;9.192;2023-07-20T05:12:55;2.53;;;2.33;;
10299;SDS011;5195;48.562;9.192;2023-07-20T05:15:21;2.80;;;2.60;;
10299;SDS011;5195;48.562;9.192;2023-07-20T05:17:46;3.87;;;2.53;;
10299;SDS011;5195;48.562;9.192;2023-07-20T05:20:13;4.33;;;2.50;;
10299;SDS011;5195;48.562;9.192;2023-07-20T05:22:39;3.87;;;2.30;;
10299;SDS011;5195;48.562;9.192;2023-07-20T05:25:08;2.50;;;2.30;;
10299;SDS011;5195;48.562;9.192;2023-07-20T05:27:36;5.23;;;2.60;;
10299;SDS011;5195;48.562;9.192;2023-07-20T05:30:00;2.73;;;2.60;;
10299;SDS011;5195;48.562;9.192;2023-07-20T05:32:26;2.80;;;2.20;;
10299;SDS011;5195;48.562;9.192;2023-07-20T05:34:52;2.67;;;2.47;;
10299;SDS011;5195;48.562;9.192;2023-07-20T05:37:17;5.78;;;2.15;;
10299;SDS011;5195;48.562;9.192;2023-07-20T05:39:42;2.63;;;2.43;;
10299;SDS011;5195;48.562;9.192;2023-07-20T05:42:08;2.80;;;2.60;;
10299;SDS011;5195;48.562;9.192;2023-07-20T05:44:33;3.77;;;2.70;;
10299;SDS011;5195;48.562;9.192;2023-07-20T05:46:59;3.70;;;2.57;;
10299;SDS011;5195;48.562;9.192;2023-07-20T05:49:25;2.30;;;2.20;;
10299;SDS011;5195;48.562;9.192;2023-07-20T05:51:51;7.07;;;2.80;;
10299;SDS011;5195;48.562;9.192;2023-07-20T05:54:16;2.50;;;2.30;;
10299;SDS011;5195;48.562;9.192;2023-07-20T05:56:42;2.40;;;2.20;;
10299;SDS011;5195;48.562;9.192;2023-07-20T05:59:08;2.73;;;2.50;;
10299;SDS011;5195;48.562;9.192;2023-07-20T06:01:33;3.10;;;2.90;;
10299;SDS011;5195;48.562;9.192;2023-07-20T06:03:59;3.97;;;2.73;;
10299;SDS011;5195;48.562;9.192;2023-07-20T06:06:25;2.90;;;2.67;;
10299;SDS011;5195;48.562;9.192;2023-07-20T06:08:51;3.42;;;3.20;;
10299;SDS011;5195;48.562;9.192;2023-07-20T06:11:16;3.55;;;3.12;;
10299;SDS011;5195;48.562;9.192;2023-07-20T06:13:42;5.43;;;3.00;;
10299;SDS011;5195;48.562;9.192;2023-07-20T06:16:07;3.60;;;3.05;;
10299;SDS011;5195;48.562;9.192;2023-07-20T06:18:34;3.37;;;3.10;;
10299;SDS011;5195;48.562;9.192;2023-07-20T06:20:59;4.17;;;2.40;;
10299;SDS011;5195;48.562;9.192;2023-07-20T06:23:25;3.67;;;3.00;;
10299;SDS011;5195;48.562;9.192;2023-07-20T06:25:51;3.53;;;2.77;;
10299;SDS011;5195;48.562;9.192;2023-07-20T06:28:17;4.95;;;2.70;;
10299;SDS011;5195;48.562;9.192;2023-07-20T06:30:43;4.50;;;2.63;;
10299;SDS011;5195;48.562;9.192;2023-07-20T06:33:08;6.00;;;3.20;;
10299;SDS011;5195;48.562;9.192;2023-07-20T06:35:34;3.57;;;2.80;;
10299;SDS011;5195;48.562;9.192;2023-07-20T06:37:59;3.07;;;2.90;;
10299;SDS011;5195;48.562;9.192;2023-07-20T06:40:25;3.40;;;3.10;;
10299;SDS011;5195;48.562;9.192;2023-07-20T06:42:51;3.13;;;2.93;;
10299;SDS011;5195;48.562;9.192;2023-07-20T06:45:23;3.40;;;3.10;;
10299;SDS011;5195;48.562;9.192;2023-07-20T06:47:48;4.80;;;2.70;;
10299;SDS011;5195;48.562;9.192;2023-07-20T06:50:14;3.47;;;3.17;;
10299;SDS011;5195;48.562;9.192;2023-07-20T06:52:40;4.37;;;2.63;;
10299;SDS011;5195;48.562;9.192;2023-07-20T06:55:05;3.75;;;2.90;;
10299;SDS011;5195;48.562;9.192;2023-07-20T06:57:31;3.93;;;2.80;;
10299;SDS011;5195;48.562;9.192;2023-07-20T06:59:57;2.93;;;2.47;;
10299;SDS011;5195;48.562;9.192;2023-07-20T07:02:23;3.10;;;2.80;;
10299;SDS011;5195;48.562;9.192;2023-07-20T07:04:48;2.92;;;2.60;;
10299;SDS011;5195;48.562;9.192;2023-07-20T07:07:14;3.75;;;3.10;;
10299;SDS011;5195;48.562;9.192;2023-07-20T07:09:40;3.50;;;2.80;;
10299;SDS011;5195;48.562;9.192;2023-07-20T07:12:05;3.80;;;2.90;;
10299;SDS011;5195;48.562;9.192;2023-07-20T07:14:32;3.12;;;2.92;;
10299;SDS011;5195;48.562;9.192;2023-07-20T07:16:58;4.77;;;2.80;;
10299;SDS011;5195;48.562;9.192;2023-07-20T07:19:24;3.20;;;2.90;;
10299;SDS011;5195;48.562;9.192;2023-07-20T07:21:49;3.50;;;2.90;;
10299;SDS011;5195;48.562;9.192;2023-07-20T07:24:15;3.80;;;3.07;;
10299;SDS011;5195;48.562;9.192;2023-07-20T07:26:40;3.15;;;2.83;;
10299;SDS011;5195;48.562;9.192;2023-07-20T07:29:06;3.57;;;3.00;;
10299;SDS011;5195;48.562;9.192;2023-07-20T07:31:33;5.00;;;3.03;;
10299;SDS011;5195;48.562;9.192;2023-07-20T07:33:57;3.30;;;3.10;;
10299;SDS011;5195;48.562;9.192;2023-07-20T07:36:22;3.00;;;2.70;;
10299;SDS011;5195;48.562;9.192;2023-07-20T07:38:48;3.30;;;3.08;;
10299;SDS011;5195;48.562;9.192;2023-07-20T07:41:14;2.70;;;2.50;;
10299;SDS011;5195;48.562;9.192;2023-07-20T07:43:41;4.20;;;2.80;;
10299;SDS011;5195;48.562;9.192;2023-07-20T07:46:07;3.70;;;2.70;;
10299;SDS011;5195;48.562;9.192;2023-07-20T07:48:32;3.75;;;2.70;;
10299;SDS011;5195;48.562;9.192;2023-07-20T07:50:58;2.80;;;2.50;;
10299;SDS011;5195;48.562;9.192;2023-07-20T07:53:23;5.53;;;2.63;;
10299;SDS011;5195;48.562;9.192;2023-07-20T07:55:49;4.82;;;2.65;;
10299;SDS011;5195;48.562;9.192;2023-07-20T07:58:14;4.50;;;2.20;;
10299;SDS011;5195;48.562;9.192;2023-07-20T08:00:40;7.67;;;2.93;;
10299;SDS011;5195;48.562;9.192;2023-07-20T08:03:06;4.10;;;2.50;;
10299;SDS011;5195;48.562;9.192;2023-07-20T08:05:32;2.80;;;2.47;;
10299;SDS011;5195;48.562;9.192;2023-07-20T08:07:57;4.37;;;2.97;;
10299;SDS011;5195;48.562;9.192;2023-07-20T08:10:23;2.97;;;2.47;;
10299;SDS011;5195;48.562;9.192;2023-07-20T08:12:49;4.03;;;2.67;;
10299;SDS011;5195;48.562;9.192;2023-07-20T08:15:14;4.63;;;2.83;;
10299;SDS011;5195;48.562;9.192;2023-07-20T08:17:43;5.33;;;3.20;;
10299;SDS011;5195;48.562;9.192;2023-07-20T08:20:12;4.23;;;2.97;;
10299;SDS011;5195;48.562;9.192;2023-07-20T08:22:37;3.00;;;2.70;;
10299;SDS011;5195;48.562;9.192;2023-07-20T08:25:04;6.10;;;2.60;;
10299;SDS011;5195;48.562;9.192;2023-07-20T08:27:29;3.33;;;2.40;;
10299;SDS011;5195;48.562;9.192;2023-07-20T08:29:55;2.90;;;2.67;;
10299;SDS011;5195;48.562;9.192;2023-07-20T08:32:21;3.00;;;2.70;;
10299;SDS011;5195;48.562;9.192;2023-07-20T08:34:47;2.85;;;2.62;;
10299;SDS011;5195;48.562;9.192;2023-07-20T08:37:12;3.95;;;2.90;;
10299;SDS011;5195;48.562;9.192;2023-07-20T08:39:38;2.87;;;2.67;;
10299;SDS011;5195;48.562;9.192;2023-07-20T08:42:04;3.60;;;2.50;;
10299;SDS011;5195;48.562;9.192;2023-07-20T08:44:29;3.03;;;2.27;;
10299;SDS011;5195;48.562;9.192;2023-07-20T08:46:55;2.47;;;2.28;;
10299;SDS011;5195;48.562;9.192;2023-07-20T08:49:21;2.87;;;2.57;;
10299;SDS011;5195;48.562;9.192;2023-07-20T08:51:46;7.20;;;2.90;;
10299;SDS011;5195;48.562;9.192;2023-07-20T08:54:12;4.73;;;2.47;;
10299;SDS011;5195;48.562;9.192;2023-07-20T08:56:38;4.37;;;2.80;;
10299;SDS011;5195;48.562;9.192;2023-07-20T08:59:03;2.80;;;2.60;;
10299;SDS011;5195;48.562;9.192;2023-07-20T09:01:29;2.97;;;2.77;;
10299;SDS011;5195;48.562;9.192;2023-07-20T09:03:55;4.40;;;2.60;;
10299;SDS011;5195;48.562;9.192;2023-07-20T09:06:21;4.43;;;2.60;;
10299;SDS011;5195;48.562;9.192;2023-07-20T09:08:46;3.40;;;2.70;;
10299;SDS011;5195;48.562;9.192;2023-07-20T09:11:12;4.17;;;2.50;;
10299;SDS011;5195;48.562;9.192;2023-07-20T09:13:39;2.70;;;2.47;;
10299;SDS011;5195;48.562;9.192;2023-07-20T09:16:05;3.20;;;2.40;;
10299;SDS011;5195;48.562;9.192;2023-07-20T09:18:31;3.03;;;2.70;;
10299;SDS011;5195;48.562;9.192;2023-07-20T09:21:04;3.23;;;2.47;;
10299;SDS011;5195;48.562;9.192;2023-07-20T09:23:32;2.40;;;2.30;;
10299;SDS011;5195;48.562;9.192;2023-07-20T09:25:57;2.53;;;2.33;;
10299;SDS011;5195;48.562;9.192;2023-07-20T09:28:23;2.72;;;2.40;;
10299;SDS011;5195;48.562;9.192;2023-07-20T09:30:48;4.80;;;2.23;;
10299;SDS011;5195;48.562;9.192;2023-07-20T09:33:24;2.40;;;2.30;;
10299;SDS011;5195;48.562;9.192;2023-07-20T09:35:49;2.75;;;2.30;;
10299;SDS011;5195;48.562;9.192;2023-07-20T09:38:15;2.50;;;2.30;;
10299;SDS011;5195;48.562;9.192;2023-07-20T09:40:41;2.40;;;2.20;;
10299;SDS011;5195;48.562;9.192;2023-07-20T09:43:09;2.50;;;2.30;;
10299;SDS011;5195;48.562;9.192;2023-07-20T09:45:42;4.30;;;2.93;;
10299;SDS011;5195;48.562;9.192;2023-07-20T09:48:07;2.67;;;2.23;;
10299;SDS011;5195;48.562;9.192;2023-07-20T09:50:33;7.93;;;2.60;;
10299;SDS011;5195;48.562;9.192;2023-07-20T09:52:58;3.30;;;2.40;;
10299;SDS011;5195;48.562;9.192;2023-07-20T09:55:25;2.77;;;2.50;;
10299;SDS011;5195;48.562;9.192;2023-07-20T09:57:49;2.87;;;2.67;;
10299;SDS011;5195;48.562;9.192;2023-07-20T10:00:15;2.85;;;2.35;;
10299;SDS011;5195;48.562;9.192;2023-07-20T10:02:42;2.27;;;2.10;;
10299;SDS011;5195;48.562;9.192;2023-07-20T10:05:11;3.67;;;2.23;;
10299;SDS011;5195;48.562;9.192;2023-07-20T10:07:35;2.73;;;2.30;;
10299;SDS011;5195;48.562;9.192;2023-07-20T10:10:01;2.87;;;2.03;;
10299;SDS011;5195;48.562;9.192;2023-07-20T10:12:26;1.83;;;1.73;;
10299;SDS011;5195;48.562;9.192;2023-07-20T10:14:59;2.13;;;1.97;;
10299;SDS011;5195;48.562;9.192;2023-07-20T10:17:24;4.53;;;2.03;;
10299;SDS011;5195;48.562;9.192;2023-07-20T10:19:49;3.30;;;1.80;;
10299;SDS011;5195;48.562;9.192;2023-07-20T10:22:17;2.12;;;1.92;;
10299;SDS011;5195;48.562;9.192;2023-07-20T10:24:45;2.25;;;2.05;;
10299;SDS011;5195;48.562;9.192;2023-07-20T10:27:09;2.23;;;2.03;;
10299;SDS011;5195;48.562;9.192;2023-07-20T10:29:35;3.83;;;1.97;;
10299;SDS011;5195;48.562;9.192;2023-07-20T10:32:00;2.00;;;1.83;;
10299;SDS011;5195;48.562;9.192;2023-07-20T10:34:26;2.37;;;2.17;;
10299;SDS011;5195;48.562;9.192;2023-07-20T10:36:53;2.00;;;1.90;;
10299;SDS011;5195;48.562;9.192;2023-07-20T10:39:22;2.90;;;1.73;;
10299;SDS011;5195;48.562;9.192;2023-07-20T10:41:48;2.07;;;1.60;;
10299;SDS011;5195;48.562;9.192;2023-07-20T10:44:14;2.00;;;1.90;;
10299;SDS011;5195;48.562;9.192;2023-07-20T10:49:06;2.57;;;1.80;;
10299;SDS011;5195;48.562;9.192;2023-07-20T10:51:38;2.03;;;1.93;;
10299;SDS011;5195;48.562;9.192;2023-07-20T10:56:43;2.10;;;1.90;;
10299;SDS011;5195;48.562;9.192;2023-07-20T10:59:55;1.60;;;1.50;;
10299;SDS011;5195;48.562;9.192;2023-07-20T11:01:54;1.90;;;1.80;;
10299;SDS011;5195;48.562;9.192;2023-07-20T11:04:16;1.90;;;1.80;;
10299;SDS011;5195;48.562;9.192;2023-07-20T11:06:45;1.83;;;1.60;;
10299;SDS011;5195;48.562;9.192;2023-07-20T11:09:11;1.93;;;1.83;;
10299;SDS011;5195;48.562;9.192;2023-07-20T11:11:43;2.00;;;1.90;;
10299;SDS011;5195;48.562;9.192;2023-07-20T11:14:19;1.73;;;1.63;;
10299;SDS011;5195;48.562;9.192;2023-07-20T11:19:10;2.67;;;1.80;;
10299;SDS011;5195;48.562;9.192;2023-07-20T11:21:36;3.73;;;1.47;;
10299;SDS011;5195;48.562;9.192;2023-07-20T11:24:02;2.67;;;1.80;;
10299;SDS011;5195;48.562;9.192;2023-07-20T11:26:26;1.80;;;1.70;;
10299;SDS011;5195;48.562;9.192;2023-07-20T11:28:52;2.62;;;1.90;;
10299;SDS011;5195;48.562;9.192;2023-07-20T11:31:18;1.90;;;1.70;;
10299;SDS011;5195;48.562;9.192;2023-07-20T11:33:44;2.43;;;1.73;;
10299;SDS011;5195;48.562;9.192;2023-07-20T11:36:10;1.70;;;1.60;;
10299;SDS011;5195;48.562;9.192;2023-07-20T11:38:35;1.70;;;1.60;;
10299;SDS011;5195;48.562;9.192;2023-07-20T11:41:04;1.77;;;1.60;;
10299;SDS011;5195;48.562;9.192;2023-07-20T11:43:30;2.50;;;1.60;;
10299;SDS011;5195;48.562;9.192;2023-07-20T11:45:56;1.40;;;1.40;;
10299;SDS011;5195;48.562;9.192;2023-07-20T11:48:24;2.30;;;1.90;;
10299;SDS011;5195;48.562;9.192;2023-07-20T11:50:49;3.53;;;1.80;;
10299;SDS011;5195;48.562;9.192;2023-07-20T11:53:15;1.53;;;1.50;;
10299;SDS011;5195;48.562;9.192;2023-07-20T11:55:41;3.07;;;1.60;;
10299;SDS011;5195;48.562;9.192;2023-07-20T11:58:07;2.22;;;1.62;;
10299;SDS011;5195;48.562;9.192;2023-07-20T12:00:33;1.97;;;1.80;;
10299;SDS011;5195;48.562;9.192;2023-07-20T12:02:59;3.70;;;1.90;;
10299;SDS011;5195;48.562;9.192;2023-07-20T12:05:24;1.90;;;1.80;;
10299;SDS011;5195;48.562;9.192;2023-07-20T12:07:50;1.90;;;1.80;;
10299;SDS011;5195;48.562;9.192;2023-07-20T12:10:26;2.77;;;1.83;;
10299;SDS011;5195;48.562;9.192;2023-07-20T12:12:51;2.25;;;1.80;;
10299;SDS011;5195;48.562;9.192;2023-07-20T12:15:25;1.87;;;1.77;;
10299;SDS011;5195;48.562;9.192;2023-07-20T12:17:51;1.93;;;1.80;;
10299;SDS011;5195;48.562;9.192;2023-07-20T12:23:00;1.77;;;1.62;;
10299;SDS011;5195;48.562;9.192;2023-07-20T12:25:32;1.70;;;1.60;;
10299;SDS011;5195;48.562;9.192;2023-07-20T12:27:59;1.50;;;1.50;;
10299;SDS011;5195;48.562;9.192;2023-07-20T12:30:22;1.70;;;1.60;;
10299;SDS011;5195;48.562;9.192;2023-07-20T12:32:49;1.77;;;1.67;;
10299;SDS011;5195;48.562;9.192;2023-07-20T12:35:14;2.00;;;1.80;;
10299;SDS011;5195;48.562;9.192;2023-07-20T12:37:40;2.57;;;1.60;;
10299;SDS011;5195;48.562;9.192;2023-07-20T12:40:06;2.03;;;1.90;;
10299;SDS011;5195;48.562;9.192;2023-07-20T12:42:32;1.80;;;1.70;;
10299;SDS011;5195;48.562;9.192;2023-07-20T12:44:58;3.00;;;1.62;;
10299;SDS011;5195;48.562;9.192;2023-07-20T12:47:23;2.60;;;1.73;;
10299;SDS011;5195;48.562;9.192;2023-07-20T12:49:49;1.77;;;1.67;;
10299;SDS011;5195;48.562;9.192;2023-07-20T12:52:14;1.87;;;1.77;;
10299;SDS011;5195;48.562;9.192;2023-07-20T12:54:41;2.00;;;1.80;;
10299;SDS011;5195;48.562;9.192;2023-07-20T12:57:06;1.98;;;1.87;;
10299;SDS011;5195;48.562;9.192;2023-07-20T12:59:31;2.97;;;1.87;;
10299;SDS011;5195;48.562;9.192;2023-07-20T13:01:57;2.43;;;1.80;;
10299;SDS011;5195;48.562;9.192;2023-07-20T13:04:24;3.80;;;1.70;;
10299;SDS011;5195;48.562;9.192;2023-07-20T13:06:50;1.90;;;1.80;;
10299;SDS011;5195;48.562;9.192;2023-07-20T13:09:16;1.93;;;1.70;;
10299;SDS011;5195;48.562;9.192;2023-07-20T13:11:42;1.87;;;1.70;;
10299;SDS011;5195;48.562;9.192;2023-07-20T13:14:07;1.80;;;1.70;;
10299;SDS011;5195;48.562;9.192;2023-07-20T13:16:33;1.60;;;1.50;;
10299;SDS011;5195;48.562;9.192;2023-07-20T13:18:58;2.00;;;1.90;;
10299;SDS011;5195;48.562;9.192;2023-07-20T13:21:25;1.83;;;1.73;;
10299;SDS011;5195;48.562;9.192;2023-07-20T13:23:51;2.40;;;1.90;;
10299;SDS011;5195;48.562;9.192;2023-07-20T13:26:17;1.77;;;1.67;;
10299;SDS011;5195;48.562;9.192;2023-07-20T13:28:43;1.90;;;1.80;;
10299;SDS011;5195;48.562;9.192;2023-07-20T13:31:10;2.80;;;1.73;;
10299;SDS011;5195;48.562;9.192;2023-07-20T13:33:35;2.63;;;1.73;;
10299;SDS011;5195;48.562;9.192;2023-07-20T13:36:01;1.90;;;1.80;;
10299;SDS011;5195;48.562;9.192;2023-07-20T13:38:28;4.73;;;2.00;;
10299;SDS011;5195;48.562;9.192;2023-07-20T13:40:53;2.03;;;1.83;;
10299;SDS011;5195;48.562;9.192;2023-07-20T13:43:19;2.87;;;1.98;;
10299;SDS011;5195;48.562;9.192;2023-07-20T13:45:44;1.40;;;1.30;;
10299;SDS011;5195;48.562;9.192;2023-07-20T13:48:10;1.95;;;1.85;;
10299;SDS011;5195;48.562;9.192;2023-07-20T13:50:36;2.03;;;1.77;;
10299;SDS011;5195;48.562;9.192;2023-07-20T13:53:01;1.77;;;1.67;;
10299;SDS011;5195;48.562;9.192;2023-07-20T13:55:27;1.45;;;1.40;;
10299;SDS011;5195;48.562;9.192;2023-07-20T13:57:52;2.60;;;1.70;;
10299;SDS011;5195;48.562;9.192;2023-07-20T14:00:18;2.10;;;1.90;;
10299;SDS011;5195;48.562;9.192;2023-07-20T14:02:43;2.25;;;1.80;;
10299;SDS011;5195;48.562;9.192;2023-07-20T14:05:10;1.90;;;1.80;;
10299;SDS011;5195;48.562;9.192;2023-07-20T14:07:35;1.90;;;1.77;;
10299;SDS011;5195;48.562;9.192;2023-07-20T14:10:02;3.23;;;1.70;;
10299;SDS011;5195;48.562;9.192;2023-07-20T14:12:31;1.92;;;1.77;;
10299;SDS011;5195;48.562;9.192;2023-07-20T14:14:54;1.98;;;1.87;;
10299;SDS011;5195;48.562;9.192;2023-07-20T14:17:21;3.90;;;1.90;;
10299;SDS011;5195;48.562;9.192;2023-07-20T14:19:46;2.10;;;1.70;;
10299;SDS011;5195;48.562;9.192;2023-07-20T14:22:12;2.35;;;1.60;;
10299;SDS011;5195;48.562;9.192;2023-07-20T14:24:38;6.60;;;1.60;;
10299;SDS011;5195;48.562;9.192;2023-07-20T14:27:04;2.20;;;2.10;;
10299;SDS011;5195;48.562;9.192;2023-07-20T14:29:30;1.70;;;1.50;;
10299;SDS011;5195;48.562;9.192;2023-07-20T14:31:55;1.77;;;1.67;;
10299;SDS011;5195;48.562;9.192;2023-07-20T14:34:21;1.80;;;1.70;;
10299;SDS011;5195;48.562;9.192;2023-07-20T14:36:47;1.60;;;1.50;;
10299;SDS011;5195;48.562;9.192;2023-07-20T14:39:13;2.20;;;1.70;;
10299;SDS011;5195;48.562;9.192;2023-07-20T14:41:39;2.23;;;1.80;;
10299;SDS011;5195;48.562;9.192;2023-07-20T14:44:04;2.13;;;1.93;;
10299;SDS011;5195;48.562;9.192;2023-07-20T14:46:32;1.90;;;1.80;;
10299;SDS011;5195;48.562;9.192;2023-07-20T14:48:58;4.40;;;1.70;;
10299;SDS011;5195;48.562;9.192;2023-07-20T14:51:24;1.90;;;1.80;;
10299;SDS011;5195;48.562;9.192;2023-07-20T14:53:49;1.80;;;1.70;;
10299;SDS011;5195;48.562;9.192;2023-07-20T14:56:15;2.67;;;1.70;;
10299;SDS011;5195;48.562;9.192;2023-07-20T14:58:41;1.90;;;1.80;;
10299;SDS011;5195;48.562;9.192;2023-07-20T15:01:06;1.50;;;1.40;;
10299;SDS011;5195;48.562;9.192;2023-07-20T15:03:32;2.03;;;1.83;;
10299;SDS011;5195;48.562;9.192;2023-07-20T15:05:58;2.40;;;1.90;;
10299;SDS011;5195;48.562;9.192;2023-07-20T15:08:24;1.87;;;1.70;;
10299;SDS011;5195;48.562;9.192;2023-07-20T15:10:50;3.50;;;1.80;;
10299;SDS011;5195;48.562;9.192;2023-07-20T15:13:16;2.00;;;1.90;;